Time;durP1;ratioP1;P1;durP2;ratioP2;P2;SDS_P1;SDS_P2;PMS_P1;PMS_P2;Temp;Humidity;BMP_temperature;BMP_pressure;BME280_temperature;BME280_humidity;BME280_pressure;Samples;Min_cycle;Max_cycle;Signal;HPM_P1;HPM_P2
2022/08/20 00:02:23;;;;;;;1.52;0.77;;;19.40;99.90;;;;;;5070221;28;20115;-67
2022/08/20 00:04:50;;;;;;;0.90;0.75;;;19.30;99.90;;;;;;5071779;28;20044;-67
2022/08/20 00:07:16;;;;;;;1.25;0.80;;;19.40;99.90;;;;;;5072726;28;20044;-68
2022/08/20 00:09:42;;;;;;;1.00;0.63;;;19.40;99.90;;;;;;5073025;28;20044;-68
2022/08/20 00:12:09;;;;;;;3.38;0.80;;;19.30;99.90;;;;;;5072888;28;20508;-66
2022/08/20 00:14:36;;;;;;;0.75;0.63;;;19.30;99.90;;;;;;5072208;28;20594;-68
2022/08/20 00:17:03;;;;;;;0.82;0.80;;;19.30;99.90;;;;;;5070668;28;20052;-67
2022/08/20 00:19:29;;;;;;;1.17;0.95;;;19.30;99.90;;;;;;5072611;28;20561;-68
2022/08/20 00:21:55;;;;;;;1.08;0.70;;;19.30;99.90;;;;;;5072693;28;20127;-68
2022/08/20 00:24:21;;;;;;;1.00;0.85;;;19.30;99.90;;;;;;5072737;28;20961;-68
2022/08/20 00:26:47;;;;;;;1.10;0.80;;;19.20;99.90;;;;;;5072562;28;20067;-67
2022/08/20 00:29:15;;;;;;;1.02;0.75;;;19.20;99.90;;;;;;5071015;28;20515;-68
2022/08/20 00:31:41;;;;;;;1.63;0.90;;;19.20;99.90;;;;;;5073893;28;20399;-68
2022/08/20 00:34:07;;;;;;;1.25;0.88;;;19.20;99.90;;;;;;5075555;28;20127;-66
2022/08/20 00:36:33;;;;;;;1.83;0.77;;;19.20;99.90;;;;;;5076386;28;20123;-67
2022/08/20 00:38:59;;;;;;;1.60;0.60;;;19.20;99.90;;;;;;5075160;28;20040;-68
2022/08/20 00:41:26;;;;;;;0.60;0.60;;;19.10;99.90;;;;;;5076255;28;20051;-68
2022/08/20 00:44:14;;;;;;;1.35;0.60;;;19.10;99.90;;;;;;5074677;28;20049;-68
2022/08/20 00:46:42;;;;;;;1.00;0.50;;;19.10;99.90;;;;;;5076310;28;20097;-68
2022/08/20 00:49:11;;;;;;;1.42;0.50;;;19.10;99.90;;;;;;5076400;28;20033;-68
2022/08/20 00:51:48;;;;;;;0.65;0.50;;;19.10;99.90;;;;;;5074374;28;20067;-68
2022/08/20 00:54:16;;;;;;;0.98;0.60;;;19.10;99.90;;;;;;5074197;28;20052;-69
2022/08/20 00:56:46;;;;;;;0.75;0.57;;;19.00;99.90;;;;;;5074331;28;20051;-68
2022/08/20 00:59:18;;;;;;;0.60;0.52;;;19.00;99.90;;;;;;5074835;28;20043;-67
2022/08/20 01:01:44;;;;;;;0.65;0.60;;;19.00;99.90;;;;;;5075500;28;20029;-68
2022/08/20 01:04:10;;;;;;;2.35;0.60;;;19.00;99.90;;;;;;5075737;28;20458;-68
2022/08/20 01:06:37;;;;;;;0.50;0.50;;;19.00;99.90;;;;;;5075615;28;20037;-69
2022/08/20 01:09:04;;;;;;;1.10;0.65;;;19.00;99.90;;;;;;5075488;28;20052;-68
2022/08/20 01:11:34;;;;;;;1.33;0.40;;;19.00;99.90;;;;;;5074530;28;20151;-69
2022/08/20 01:14:22;;;;;;;1.10;0.57;;;18.90;99.90;;;;;;5075852;28;20126;-69
2022/08/20 01:16:51;;;;;;;0.75;0.43;;;18.90;99.90;;;;;;5074125;28;20044;-69
2022/08/20 01:19:23;;;;;;;0.90;0.43;;;18.90;99.90;;;;;;5074235;28;20040;-68
2022/08/20 01:21:51;;;;;;;0.43;0.35;;;19.00;99.90;;;;;;5075401;28;20039;-68
2022/08/20 01:24:27;;;;;;;0.80;0.45;;;19.00;99.90;;;;;;5075430;28;20172;-68
2022/08/20 01:26:54;;;;;;;0.52;0.45;;;18.90;99.90;;;;;;5075567;28;20530;-67
2022/08/20 01:29:28;;;;;;;0.57;0.50;;;18.90;99.90;;;;;;5075487;28;20041;-68
2022/08/20 01:31:59;;;;;;;1.30;0.45;;;18.90;99.90;;;;;;5075234;28;20143;-69
2022/08/20 01:34:26;;;;;;;0.88;0.30;;;18.80;99.90;;;;;;5075324;28;20044;-68
2022/08/20 01:36:54;;;;;;;0.50;0.35;;;18.70;99.90;;;;;;5075387;28;20052;-68
2022/08/20 01:39:24;;;;;;;0.57;0.40;;;18.70;99.90;;;;;;5075227;28;20032;-69
2022/08/20 01:41:50;;;;;;;;;;;18.70;99.90;;;;;;5075563;28;20052;-68
2022/08/20 01:44:17;;;;;;;0.30;0.22;;;18.80;99.90;;;;;;5074781;28;19908;-68
2022/08/20 01:46:45;;;;;;;0.95;0.40;;;18.80;99.90;;;;;;5075032;28;20102;-68
2022/08/20 01:49:22;;;;;;;0.28;0.28;;;18.80;99.90;;;;;;5075133;28;20068;-68
2022/08/20 01:51:49;;;;;;;0.57;0.40;;;18.80;99.90;;;;;;5074854;28;20042;-68
2022/08/20 01:54:16;;;;;;;2.28;0.50;;;18.80;99.90;;;;;;5073738;28;20110;-68
2022/08/20 01:57:01;;;;;;;0.30;0.20;;;18.80;99.90;;;;;;5074630;28;20120;-68
2022/08/20 01:59:28;;;;;;;0.20;0.10;;;18.90;99.90;;;;;;5074994;28;20040;-68
2022/08/20 02:01:55;;;;;;;0.60;0.30;;;18.80;99.90;;;;;;5074853;28;20047;-67
2022/08/20 02:04:21;;;;;;;0.20;0.20;;;18.60;99.90;;;;;;5073526;28;20462;-68
2022/08/20 02:06:51;;;;;;;2.55;0.40;;;18.60;99.90;;;;;;5074726;28;20051;-68
2022/08/20 02:09:18;;;;;;;1.05;0.40;;;18.70;99.90;;;;;;5074429;28;20040;-67
2022/08/20 02:11:45;;;;;;;0.85;0.50;;;18.60;99.90;;;;;;5074486;28;20605;-68
2022/08/20 02:14:11;;;;;;;1.05;0.40;;;18.60;99.90;;;;;;5074563;28;20126;-68
2022/08/20 02:16:41;;;;;;;0.30;0.30;;;18.60;99.90;;;;;;5074595;28;20487;-68
2022/08/20 02:19:16;;;;;;;1.08;0.30;;;18.70;99.90;;;;;;5074325;28;20527;-68
2022/08/20 02:21:48;;;;;;;1.35;0.40;;;18.80;99.90;;;;;;5074176;28;20048;-68
2022/08/20 02:24:13;;;;;;;0.77;0.30;;;18.70;99.90;;;;;;5073618;28;20626;-67
2022/08/20 02:26:40;;;;;;;0.40;0.20;;;18.70;99.90;;;;;;5074074;28;20115;-68
2022/08/20 02:29:08;;;;;;;1.30;0.45;;;18.60;99.90;;;;;;5072768;28;20089;-69
2022/08/20 02:31:35;;;;;;;0.40;0.30;;;18.70;99.90;;;;;;5073900;28;20052;-68
2022/08/20 02:34:03;;;;;;;0.52;0.35;;;18.80;99.90;;;;;;5073964;28;20048;-67
2022/08/20 02:36:30;;;;;;;0.38;0.30;;;18.80;99.90;;;;;;5073868;28;20067;-68
2022/08/20 02:38:56;;;;;;;1.80;0.52;;;18.80;99.90;;;;;;5073541;28;20566;-68
2022/08/20 02:41:21;;;;;;;0.88;0.30;;;18.80;99.90;;;;;;5071910;28;20139;-68
2022/08/20 02:43:50;;;;;;;1.48;0.50;;;18.80;99.90;;;;;;5071889;28;20094;-69
2022/08/20 02:46:17;;;;;;;3.90;0.40;;;18.80;99.90;;;;;;5071652;28;20060;-67
2022/08/20 02:48:44;;;;;;;0.38;0.20;;;18.70;99.90;;;;;;5071560;28;20098;-67
2022/08/20 02:51:10;;;;;;;0.28;0.25;;;18.80;99.90;;;;;;5070178;28;20645;-68
2022/08/20 02:53:38;;;;;;;2.95;0.47;;;18.80;99.90;;;;;;5071028;28;20056;-68
2022/08/20 02:56:09;;;;;;;1.02;0.50;;;18.90;99.90;;;;;;5072641;28;20047;-68
2022/08/20 02:58:35;;;;;;;0.77;0.55;;;18.80;99.90;;;;;;5071475;28;20084;-69
2022/08/20 03:01:05;;;;;;;0.22;0.20;;;18.70;99.90;;;;;;5073536;28;20040;-68
2022/08/20 03:03:31;;;;;;;0.43;0.40;;;18.70;99.90;;;;;;5073503;28;20093;-68
2022/08/20 03:05:58;;;;;;;0.30;0.30;;;18.60;99.90;;;;;;5073438;28;20040;-67
2022/08/20 03:08:26;;;;;;;0.40;0.30;;;18.60;99.90;;;;;;5073439;28;20036;-69
2022/08/20 03:10:52;;;;;;;0.30;0.30;;;18.70;99.90;;;;;;5070511;28;20038;-69
2022/08/20 03:13:19;;;;;;;0.30;0.30;;;18.70;99.90;;;;;;5070806;28;20044;-69
2022/08/20 03:15:50;;;;;;;1.17;0.50;;;18.70;99.90;;;;;;5072287;28;20485;-69
2022/08/20 03:18:17;;;;;;;0.50;0.40;;;18.70;99.90;;;;;;5072835;28;20078;-69
2022/08/20 03:20:44;;;;;;;0.85;0.50;;;18.70;99.90;;;;;;5067035;28;20119;-69
2022/08/20 03:23:10;;;;;;;0.95;0.40;;;18.70;99.90;;;;;;5051479;28;20045;-68
2022/08/20 03:25:36;;;;;;;0.30;0.30;;;18.70;99.90;;;;;;5053170;28;20859;-68
2022/08/20 03:28:02;;;;;;;0.60;0.40;;;18.70;99.90;;;;;;5053038;28;20400;-68
2022/08/20 03:30:29;;;;;;;0.45;0.40;;;18.70;99.90;;;;;;5052711;28;20047;-68
2022/08/20 03:32:56;;;;;;;0.52;0.30;;;18.80;99.90;;;;;;5052548;28;20063;-67
2022/08/20 03:35:24;;;;;;;0.30;0.30;;;18.70;99.90;;;;;;5052981;28;20037;-68
2022/08/20 03:37:50;;;;;;;0.75;0.50;;;18.80;99.90;;;;;;5053175;28;20090;-69
2022/08/20 03:40:21;;;;;;;3.10;0.32;;;18.70;99.90;;;;;;5052847;28;20508;-69
2022/08/20 03:42:47;;;;;;;0.20;0.20;;;18.80;99.90;;;;;;5052817;28;20048;-68
2022/08/20 03:45:13;;;;;;;0.55;0.22;;;18.70;99.90;;;;;;5052857;28;20048;-69
2022/08/20 03:47:40;;;;;;;1.35;0.50;;;18.80;99.90;;;;;;5052860;28;20508;-68
2022/08/20 03:50:08;;;;;;;1.67;0.30;;;18.90;99.90;;;;;;5052887;28;20041;-69
2022/08/20 03:52:34;;;;;;;1.25;0.50;;;18.80;99.90;;;;;;5052664;28;20052;-68
2022/08/20 03:55:00;;;;;;;0.65;0.43;;;18.80;99.90;;;;;;5052883;28;20040;-69
2022/08/20 03:57:27;;;;;;;1.45;0.35;;;18.70;99.90;;;;;;5052619;28;20078;-68
2022/08/20 03:59:53;;;;;;;1.00;0.68;;;18.70;99.90;;;;;;5052592;28;20073;-68
2022/08/20 04:02:19;;;;;;;0.30;0.30;;;18.70;99.90;;;;;;5052644;28;20072;-68
2022/08/20 04:04:44;;;;;;;0.85;0.35;;;18.80;99.90;;;;;;5051279;28;20041;-67
2022/08/20 04:07:19;;;;;;;0.30;0.30;;;18.80;99.90;;;;;;5056457;28;20047;-68
2022/08/20 04:09:45;;;;;;;0.40;0.35;;;18.70;99.90;;;;;;5056721;28;20048;-69
2022/08/20 04:12:14;;;;;;;0.82;0.45;;;18.60;99.90;;;;;;5056312;28;20049;-69
2022/08/20 04:14:39;;;;;;;1.25;0.60;;;18.50;99.90;;;;;;5055222;28;20048;-69
2022/08/20 04:17:07;;;;;;;1.05;0.52;;;18.50;99.90;;;;;;5056594;28;20037;-68
2022/08/20 04:19:34;;;;;;;2.80;0.50;;;18.50;99.90;;;;;;5056468;28;20060;-67
2022/08/20 04:22:00;;;;;;;1.48;0.30;;;18.60;99.90;;;;;;5056259;28;20048;-68
2022/08/20 04:24:26;;;;;;;1.27;0.45;;;18.60;99.90;;;;;;5054898;28;20373;-68
2022/08/20 04:26:53;;;;;;;0.82;0.40;;;18.70;99.90;;;;;;5056364;28;20132;-67
2022/08/20 04:29:20;;;;;;;0.70;0.40;;;18.70;99.90;;;;;;5056189;28;20464;-68
2022/08/20 04:31:46;;;;;;;0.60;0.45;;;18.70;99.90;;;;;;5056048;28;20396;-68
2022/08/20 04:34:12;;;;;;;0.30;0.30;;;18.70;99.90;;;;;;5055983;28;20067;-68
2022/08/20 04:36:39;;;;;;;1.75;0.40;;;18.70;99.90;;;;;;5055969;28;20080;-69
2022/08/20 04:39:05;;;;;;;0.38;0.32;;;18.70;99.90;;;;;;5055948;28;20044;-69
2022/08/20 04:41:31;;;;;;;0.65;0.20;;;18.70;99.90;;;;;;5054761;28;20488;-68
2022/08/20 04:43:57;;;;;;;1.55;0.45;;;18.70;99.90;;;;;;5056150;28;20037;-69
2022/08/20 04:46:27;;;;;;;0.30;0.30;;;18.60;99.90;;;;;;5056055;28;20041;-68
2022/08/20 04:48:54;;;;;;;3.92;0.28;;;18.60;99.90;;;;;;5056102;28;20109;-68
2022/08/20 04:51:21;;;;;;;0.40;0.30;;;18.70;99.90;;;;;;5055914;28;20048;-69
2022/08/20 04:53:47;;;;;;;2.60;0.43;;;18.70;99.90;;;;;;5054355;28;20037;-68
2022/08/20 04:56:13;;;;;;;1.67;0.30;;;18.50;99.90;;;;;;5054664;28;20481;-68
2022/08/20 04:58:39;;;;;;;0.45;0.28;;;18.50;99.90;;;;;;5055941;28;20071;-68
2022/08/20 05:01:10;;;;;;;1.08;0.47;;;18.50;99.90;;;;;;5055684;28;20539;-67
2022/08/20 05:03:39;;;;;;;0.50;0.32;;;18.50;99.90;;;;;;5055766;28;20069;-69
2022/08/20 05:06:08;;;;;;;0.40;0.20;;;18.50;99.90;;;;;;5055564;28;20052;-68
2022/08/20 05:08:36;;;;;;;0.50;0.30;;;18.50;99.90;;;;;;5055299;28;20049;-68
2022/08/20 05:11:02;;;;;;;0.30;0.30;;;18.60;99.90;;;;;;5054038;28;20491;-69
2022/08/20 05:13:28;;;;;;;0.40;0.30;;;18.60;99.90;;;;;;5055388;28;20039;-69
2022/08/20 05:15:55;;;;;;;0.30;0.30;;;18.60;99.90;;;;;;5054708;28;20091;-68
2022/08/20 05:18:24;;;;;;;0.90;0.50;;;18.60;99.90;;;;;;5060768;28;20535;-69
2022/08/20 05:20:50;;;;;;;1.58;0.30;;;18.60;99.90;;;;;;5075175;28;20036;-68
2022/08/20 05:23:18;;;;;;;0.80;0.50;;;18.60;99.90;;;;;;5075261;28;20048;-67
2022/08/20 05:25:51;;;;;;;0.77;0.30;;;18.60;99.90;;;;;;5075475;28;20404;-68
2022/08/20 05:28:23;;;;;;;0.55;0.32;;;18.60;99.90;;;;;;5073974;28;20036;-68
2022/08/20 05:30:51;;;;;;;0.40;0.20;;;18.50;99.90;;;;;;5073802;28;20051;-69
2022/08/20 05:33:21;;;;;;;1.23;0.30;;;18.60;99.90;;;;;;5073848;28;20135;-68
2022/08/20 05:35:51;;;;;;;2.47;0.37;;;18.50;99.90;;;;;;5074825;28;20044;-67
2022/08/20 05:38:19;;;;;;;0.40;0.40;;;18.60;99.90;;;;;;5073515;28;20279;-67
2022/08/20 05:40:46;;;;;;;0.45;0.20;;;18.60;99.90;;;;;;5074936;28;20056;-69
2022/08/20 05:43:13;;;;;;;0.68;0.40;;;18.60;99.90;;;;;;5073693;28;20032;-68
2022/08/20 05:45:43;;;;;;;0.55;0.20;;;18.60;99.90;;;;;;5074935;28;20032;-68
2022/08/20 05:48:14;;;;;;;2.47;0.43;;;18.60;99.90;;;;;;5073611;28;20040;-68
2022/08/20 05:50:42;;;;;;;0.57;0.20;;;18.60;99.90;;;;;;5074619;28;20373;-68
2022/08/20 05:53:08;;;;;;;0.50;0.38;;;18.60;99.90;;;;;;5074553;28;20047;-68
2022/08/20 05:55:37;;;;;;;0.32;0.30;;;18.70;99.90;;;;;;5074004;28;20407;-68
2022/08/20 05:58:05;;;;;;;0.70;0.32;;;18.70;99.90;;;;;;5074321;28;20039;-69
2022/08/20 06:00:32;;;;;;;0.20;0.20;;;18.70;99.90;;;;;;5074247;28;20045;-68
2022/08/20 06:05:43;;;;;;;0.20;0.10;;;18.60;99.90;;;;;;5074367;28;20040;-69
2022/08/20 06:08:11;;;;;;;0.80;0.30;;;18.60;99.90;;;;;;5074323;28;20032;-69
2022/08/20 06:10:38;;;;;;;0.10;0.10;;;18.70;99.90;;;;;;5074232;28;20039;-69
2022/08/20 06:13:04;;;;;;;0.20;0.20;;;18.60;99.90;;;;;;5072956;28;20048;-69
2022/08/20 06:15:31;;;;;;;0.52;0.20;;;18.70;99.90;;;;;;5074327;28;20055;-70
2022/08/20 06:17:57;;;;;;;0.20;0.20;;;18.70;99.90;;;;;;5073057;28;20044;-71
2022/08/20 06:20:23;;;;;;;1.00;0.20;;;18.60;99.90;;;;;;5072981;28;20591;-73
2022/08/20 06:22:49;;;;;;;2.42;0.32;;;18.50;99.90;;;;;;5074001;28;20399;-72
2022/08/20 06:25:15;;;;;;;2.17;0.30;;;18.60;99.90;;;;;;5073937;28;20036;-72
2022/08/20 06:27:42;;;;;;;0.50;0.30;;;18.50;99.90;;;;;;5073339;28;20037;-72
2022/08/20 06:30:10;;;;;;;0.10;0.10;;;18.30;99.90;;;;;;5073507;28;20526;-73
2022/08/20 06:32:36;;;;;;;0.38;0.10;;;18.30;99.90;;;;;;5073868;28;20044;-73
2022/08/20 06:35:05;;;;;;;0.22;0.10;;;18.30;99.90;;;;;;5072622;28;20174;-73
2022/08/20 06:37:35;;;;;;;0.10;0.10;;;18.40;99.90;;;;;;5072362;28;20048;-72
2022/08/20 06:40:22;;;;;;;0.43;0.30;;;18.50;99.90;;;;;;5073581;28;20048;-73
2022/08/20 06:42:49;;;;;;;0.05;0.00;;;18.50;99.90;;;;;;5073514;28;20403;-73
2022/08/20 06:45:24;;;;;;;0.28;0.10;;;18.50;99.90;;;;;;5072155;28;20441;-73
2022/08/20 06:47:52;;;;;;;0.00;0.00;;;18.60;99.90;;;;;;5072181;28;20554;-73
2022/08/20 06:50:28;;;;;;;0.10;0.10;;;18.60;99.90;;;;;;5073325;28;20040;-73
2022/08/20 06:52:55;;;;;;;0.10;0.10;;;18.50;99.90;;;;;;5073018;28;20135;-73
2022/08/20 06:55:21;;;;;;;0.10;0.10;;;18.60;99.90;;;;;;5072301;28;20506;-74
2022/08/20 06:57:54;;;;;;;0.20;0.10;;;18.60;99.90;;;;;;5073208;28;20036;-73
2022/08/20 07:00:20;;;;;;;0.10;0.08;;;18.70;99.90;;;;;;5073250;28;20036;-74
2022/08/20 07:02:46;;;;;;;0.10;0.10;;;18.70;99.90;;;;;;5073342;28;20105;-74
2022/08/20 07:05:13;;;;;;;0.10;0.10;;;18.70;99.90;;;;;;5073213;28;20067;-73
2022/08/20 07:07:42;;;;;;;0.10;0.10;;;18.70;99.90;;;;;;5071980;28;20531;-74
2022/08/20 07:10:11;;;;;;;0.07;0.03;;;18.70;99.90;;;;;;5071902;28;20491;-74
2022/08/20 07:12:36;;;;;;;0.10;0.10;;;18.70;99.90;;;;;;5073019;28;20322;-72
2022/08/20 07:15:10;;;;;;;0.40;0.20;;;18.60;99.90;;;;;;5071855;28;20098;-73
2022/08/20 07:17:37;;;;;;;0.10;0.10;;;18.70;99.90;;;;;;5071330;28;20032;-74
2022/08/20 07:20:07;;;;;;;0.25;0.10;;;;;;;;;;5072955;28;20089;-74
2022/08/20 07:22:36;;;;;;;;;;;18.70;99.90;;;;;;5073656;28;20083;-74
2022/08/20 07:25:08;;;;;;;0.60;0.30;;;18.90;99.90;;;;;;5064847;28;19908;-72
2022/08/20 07:27:34;;;;;;;0.43;0.10;;;19.10;99.90;;;;;;5051016;28;20508;-69
2022/08/20 07:32:45;;;;;;;0.28;0.20;;;19.90;99.90;;;;;;5052888;28;20106;-72
2022/08/20 07:35:13;;;;;;;0.30;0.20;;;;;;;;;;5052912;28;20033;-70
2022/08/20 07:37:42;;;;;;;0.15;0.15;;;21.10;99.90;;;;;;5053088;28;20037;-72
2022/08/20 07:40:14;;;;;;;0.40;0.30;;;21.20;99.90;;;;;;5051452;28;20069;-71
2022/08/20 07:42:39;;;;;;;0.15;0.13;;;20.90;99.90;;;;;;5053076;28;20048;-72
2022/08/20 07:45:09;;;;;;;0.20;0.20;;;;;;;;;;5052705;28;20573;-70
2022/08/20 07:47:35;;;;;;;0.70;0.30;;;;;;;;;;5052949;28;20131;-71
2022/08/20 07:50:01;;;;;;;0.32;0.30;;;;;;;;;;5051868;28;20519;-69
2022/08/20 07:52:27;;;;;;;0.55;0.20;;;;;;;;;;5052809;28;20389;-71
2022/08/20 07:54:54;;;;;;;0.43;0.25;;;;;;;;;;5051444;28;20037;-71
2022/08/20 07:57:19;;;;;;;0.10;0.10;;;22.20;99.90;;;;;;5052541;28;20041;-71
2022/08/20 07:59:45;;;;;;;1.55;0.30;;;22.10;99.90;;;;;;5051340;28;20135;-71
2022/08/20 08:02:12;;;;;;;0.70;0.30;;;;;;;;;;5052844;28;20057;-69
2022/08/20 08:04:38;;;;;;;0.40;0.20;;;23.10;99.90;;;;;;5051480;28;20029;-71
2022/08/20 08:07:05;;;;;;;0.43;0.10;;;23.40;99.90;;;;;;5052761;28;20416;-70
2022/08/20 08:09:32;;;;;;;0.30;0.30;;;23.30;99.90;;;;;;5052670;28;20043;-70
2022/08/20 08:12:01;;;;;;;0.20;0.20;;;23.50;99.90;;;;;;5052446;28;20048;-71
2022/08/20 08:14:30;;;;;;;0.30;0.20;;;23.60;99.90;;;;;;5052360;28;20037;-71
2022/08/20 08:17:01;;;;;;;1.00;0.25;;;23.70;99.90;;;;;;5052431;28;20526;-70
2022/08/20 08:19:37;;;;;;;0.45;0.17;;;23.60;99.90;;;;;;5051170;28;20056;-71
2022/08/20 08:22:05;;;;;;;0.28;0.22;;;23.30;99.90;;;;;;5052436;28;20032;-70
2022/08/20 08:24:31;;;;;;;0.90;0.25;;;23.30;99.90;;;;;;5051187;28;20047;-71
2022/08/20 08:26:56;;;;;;;0.20;0.20;;;22.90;99.90;;;;;;5052404;28;20135;-71
2022/08/20 08:29:22;;;;;;;0.52;0.25;;;23.30;99.90;;;;;;5052232;28;20516;-70
2022/08/20 08:31:48;;;;;;;0.25;0.20;;;23.00;99.90;;;;;;5070645;28;20056;-71
2022/08/20 08:34:14;;;;;;;0.30;0.10;;;23.00;99.90;;;;;;5070881;28;20033;-70
2022/08/20 08:36:41;;;;;;;0.32;0.20;;;23.20;99.90;;;;;;5071099;28;20518;-70
2022/08/20 08:39:07;;;;;;;1.15;0.20;;;22.90;99.90;;;;;;5071089;28;20033;-70
2022/08/20 08:41:46;;;;;;;0.38;0.30;;;23.00;99.90;;;;;;5072232;28;20074;-70
2022/08/20 08:44:25;;;;;;;0.40;0.30;;;22.90;99.90;;;;;;5072557;28;20111;-70
2022/08/20 08:47:20;;;;;;;0.20;0.20;;;22.50;99.90;;;;;;5072330;28;20094;-69
2022/08/20 08:49:47;;;;;;;0.80;0.25;;;;;;;;;;5049915;28;20044;-69
2022/08/20 08:52:30;;;;;;;0.28;0.20;;;24.40;99.90;;;;;;5052645;28;20055;-69
2022/08/20 08:54:59;;;;;;;0.45;0.20;;;24.30;99.90;;;;;;5055377;28;20044;-68
2022/08/20 08:57:25;;;;;;;0.30;0.30;;;23.50;99.90;;;;;;5055308;28;20043;-69
2022/08/20 09:00:22;;;;;;;0.28;0.20;;;22.80;99.90;;;;;;5054172;28;20056;-69
2022/08/20 09:03:00;;;;;;;0.20;0.20;;;23.20;99.90;;;;;;5053257;28;20069;-70
2022/08/20 09:05:42;;;;;;;0.22;0.20;;;22.30;99.90;;;;;;5054334;28;20041;-68
2022/08/20 09:08:12;;;;;;;0.45;0.20;;;22.70;99.90;;;;;;5059294;28;20037;-70
2022/08/20 09:10:38;;;;;;;0.38;0.30;;;24.00;99.90;;;;;;5074233;28;20777;-70
2022/08/20 09:13:05;;;;;;;0.20;0.13;;;24.50;99.90;;;;;;5075434;28;20377;-70
2022/08/20 09:15:31;;;;;;;0.32;0.20;;;24.30;99.90;;;;;;5075523;28;20040;-69
2022/08/20 09:17:56;;;;;;;1.27;0.20;;;24.30;99.90;;;;;;5075564;28;20074;-68
2022/08/20 09:20:22;;;;;;;0.68;0.40;;;24.10;99.90;;;;;;5075379;28;20048;-69
2022/08/20 09:22:48;;;;;;;0.40;0.30;;;23.10;99.90;;;;;;5074046;28;20147;-69
2022/08/20 09:25:15;;;;;;;0.95;0.40;;;23.10;99.90;;;;;;5075303;28;20503;-70
2022/08/20 09:27:41;;;;;;;0.20;0.20;;;23.30;99.90;;;;;;5074933;28;20079;-70
2022/08/20 09:30:08;;;;;;;0.30;0.20;;;23.30;99.90;;;;;;5075187;28;20534;-70
2022/08/20 09:32:34;;;;;;;0.65;0.20;;;23.30;99.90;;;;;;5074904;28;20151;-69
2022/08/20 09:34:59;;;;;;;0.85;0.30;;;22.30;99.90;;;;;;5074938;28;20040;-70
2022/08/20 09:37:28;;;;;;;0.30;0.25;;;22.00;99.90;;;;;;5074919;28;20036;-69
2022/08/20 09:39:55;;;;;;;0.55;0.28;;;21.60;99.90;;;;;;5074924;28;20633;-68
2022/08/20 09:42:24;;;;;;;0.30;0.30;;;21.60;99.90;;;;;;5074540;28;20064;-69
2022/08/20 09:44:51;;;;;;;0.30;0.15;;;21.60;99.90;;;;;;5074572;28;20430;-69
2022/08/20 09:47:18;;;;;;;0.85;0.40;;;21.90;99.90;;;;;;5074766;28;20032;-70
2022/08/20 09:49:44;;;;;;;0.40;0.30;;;22.30;99.90;;;;;;5073025;28;20032;-69
2022/08/20 09:52:20;;;;;;;0.32;0.32;;;22.60;99.90;;;;;;5074596;28;20044;-69
2022/08/20 09:54:46;;;;;;;0.50;0.40;;;22.80;99.90;;;;;;5074546;28;20040;-69
2022/08/20 09:57:14;;;;;;;0.30;0.20;;;22.40;99.90;;;;;;5074693;28;20028;-68
2022/08/20 09:59:40;;;;;;;0.30;0.30;;;22.90;99.90;;;;;;5074562;28;20046;-69
2022/08/20 10:02:05;;;;;;;0.40;0.40;;;22.70;99.90;;;;;;5074576;28;20449;-69
2022/08/20 10:04:31;;;;;;;0.30;0.30;;;22.80;99.90;;;;;;5073347;28;20066;-69
2022/08/20 10:06:57;;;;;;;0.55;0.40;;;23.10;99.90;;;;;;5074307;28;20044;-69
2022/08/20 10:09:23;;;;;;;1.05;0.30;;;23.00;99.90;;;;;;5074059;28;20526;-69
2022/08/20 10:11:49;;;;;;;0.35;0.35;;;23.00;99.90;;;;;;5074252;28;20044;-69
2022/08/20 10:14:15;;;;;;;1.27;0.30;;;23.10;99.90;;;;;;5074234;28;20040;-69
2022/08/20 10:16:40;;;;;;;0.30;0.30;;;23.00;99.90;;;;;;5074202;28;20036;-68
2022/08/20 10:19:06;;;;;;;0.35;0.30;;;23.00;99.90;;;;;;5074013;28;20040;-69
2022/08/20 10:21:33;;;;;;;0.82;0.30;;;22.50;99.90;;;;;;5074189;28;20036;-68
2022/08/20 10:23:59;;;;;;;1.90;0.68;;;22.50;99.90;;;;;;5074098;28;20036;-69
2022/08/20 10:26:25;;;;;;;0.20;0.20;;;22.60;99.90;;;;;;5074133;28;20040;-68
2022/08/20 10:28:51;;;;;;;0.40;0.40;;;22.70;99.90;;;;;;5074163;28;20527;-69
2022/08/20 10:31:16;;;;;;;1.38;0.28;;;22.70;99.90;;;;;;5072383;28;20051;-69
2022/08/20 10:33:43;;;;;;;0.43;0.43;;;22.30;99.90;;;;;;5073712;28;20040;-68
2022/08/20 10:36:11;;;;;;;0.30;0.30;;;22.60;99.90;;;;;;5072630;28;20028;-67
2022/08/20 10:38:37;;;;;;;0.88;0.50;;;23.40;99.90;;;;;;5072536;28;20450;-69
2022/08/20 10:41:04;;;;;;;0.70;0.32;;;24.20;99.90;;;;;;5073277;28;20047;-69
2022/08/20 10:43:29;;;;;;;0.30;0.20;;;24.10;99.90;;;;;;5073550;28;20041;-69
2022/08/20 10:45:55;;;;;;;0.17;0.17;;;24.20;99.90;;;;;;5073340;28;20525;-69
2022/08/20 10:48:21;;;;;;;0.20;0.20;;;24.90;99.90;;;;;;5073318;28;20132;-69
2022/08/20 10:50:47;;;;;;;0.20;0.20;;;25.70;99.90;;;;;;5073103;28;20580;-69
2022/08/20 10:53:13;;;;;;;0.80;0.20;;;25.40;99.90;;;;;;5072983;28;20424;-68
2022/08/20 10:55:39;;;;;;;0.40;0.32;;;24.90;99.90;;;;;;5070930;28;20037;-68
2022/08/20 10:58:05;;;;;;;0.20;0.20;;;24.50;99.90;;;;;;5071579;28;20075;-69
2022/08/20 11:00:31;;;;;;;0.25;0.20;;;24.40;99.90;;;;;;5071519;28;20044;-68
2022/08/20 11:02:57;;;;;;;1.98;0.70;;;23.60;99.90;;;;;;5071658;28;20071;-69
2022/08/20 11:05:23;;;;;;;0.20;0.20;;;23.70;99.90;;;;;;5071699;28;20112;-69
2022/08/20 11:07:49;;;;;;;1.25;0.30;;;24.00;99.90;;;;;;5071653;28;20491;-68
2022/08/20 11:10:15;;;;;;;0.30;0.30;;;24.30;99.90;;;;;;5070463;28;20036;-68
2022/08/20 11:12:42;;;;;;;0.40;0.28;;;24.40;99.90;;;;;;5072680;28;20055;-69
2022/08/20 11:15:08;;;;;;;1.30;0.30;;;24.40;99.90;;;;;;5072911;28;20093;-68
2022/08/20 11:17:35;;;;;;;0.40;0.28;;;24.00;99.90;;;;;;5071754;28;20119;-69
2022/08/20 11:20:04;;;;;;;0.28;0.28;;;23.40;99.90;;;;;;5072884;28;20127;-69
2022/08/20 11:22:30;;;;;;;0.20;0.20;;;24.40;99.90;;;;;;5072972;28;20055;-69
2022/08/20 11:24:56;;;;;;;0.82;0.35;;;24.80;99.90;;;;;;5073041;28;20404;-67
2022/08/20 11:27:31;;;;;;;3.28;0.30;;;24.20;99.90;;;;;;5071198;28;20051;-69
2022/08/20 11:29:57;;;;;;;0.20;0.20;;;25.00;99.90;;;;;;5061119;28;20041;-68
2022/08/20 11:32:23;;;;;;;0.65;0.40;;;25.00;99.90;;;;;;5049984;28;20052;-69
2022/08/20 11:34:50;;;;;;;0.20;0.20;;;25.70;99.90;;;;;;5052001;28;20044;-68
2022/08/20 11:37:17;;;;;;;0.32;0.30;;;25.00;99.90;;;;;;5049983;28;20504;-68
2022/08/20 11:39:43;;;;;;;0.80;0.30;;;25.30;99.90;;;;;;5049642;28;20040;-67
2022/08/20 11:42:10;;;;;;;0.40;0.28;;;25.20;99.90;;;;;;5062585;28;20534;-67
2022/08/20 11:44:36;;;;;;;0.28;0.20;;;25.50;99.90;;;;;;5071270;28;20041;-68
2022/08/20 11:47:04;;;;;;;0.10;0.10;;;25.00;99.80;;;;;;5072388;28;20401;-67
2022/08/20 11:49:32;;;;;;;0.40;0.20;;;25.60;97.70;;;;;;5071098;28;20037;-67
2022/08/20 11:51:58;;;;;;;0.28;0.20;;;26.00;98.90;;;;;;5069591;28;20121;-68
2022/08/20 11:54:24;;;;;;;1.00;0.22;;;26.50;98.20;;;;;;5070436;28;20503;-68
2022/08/20 11:56:51;;;;;;;0.13;0.10;;;25.60;97.00;;;;;;5070317;28;20040;-68
2022/08/20 11:59:17;;;;;;;0.30;0.30;;;25.70;97.60;;;;;;5071928;28;20048;-68
2022/08/20 12:01:43;;;;;;;0.20;0.20;;;26.40;97.00;;;;;;5069358;28;20560;-68
2022/08/20 12:04:09;;;;;;;0.20;0.20;;;26.00;96.00;;;;;;5070254;28;20044;-68
2022/08/20 12:06:35;;;;;;;0.22;0.20;;;25.50;96.90;;;;;;5070253;28;20040;-68
2022/08/20 12:09:02;;;;;;;0.20;0.20;;;26.10;96.50;;;;;;5070622;28;20044;-68
2022/08/20 12:11:28;;;;;;;0.20;0.20;;;26.00;96.20;;;;;;5070001;28;20028;-67
2022/08/20 12:13:55;;;;;;;0.47;0.32;;;26.20;95.50;;;;;;5069938;28;20044;-66
2022/08/20 12:16:21;;;;;;;0.15;0.15;;;26.40;96.60;;;;;;5070172;28;20571;-70
2022/08/20 12:18:48;;;;;;;0.13;0.13;;;26.90;95.70;;;;;;5069674;28;20135;-67
2022/08/20 12:21:14;;;;;;;0.20;0.10;;;26.50;92.90;;;;;;5070672;28;20051;-69
2022/08/20 12:23:40;;;;;;;0.30;0.30;;;26.30;95.40;;;;;;5069529;28;20048;-68
2022/08/20 12:26:06;;;;;;;0.20;0.20;;;26.60;95.50;;;;;;5070890;28;20118;-68
2022/08/20 12:28:32;;;;;;;0.20;0.17;;;27.10;94.20;;;;;;5075528;28;20123;-68
2022/08/20 12:30:58;;;;;;;0.82;0.32;;;27.00;92.60;;;;;;5072396;28;20219;-70
2022/08/20 12:33:24;;;;;;;0.10;0.10;;;25.50;92.90;;;;;;5069658;28;20403;-68
2022/08/20 12:35:51;;;;;;;1.17;0.20;;;26.20;94.90;;;;;;5072599;28;20051;-67
2022/08/20 12:38:19;;;;;;;0.22;0.20;;;27.20;94.70;;;;;;5071171;28;20087;-68
2022/08/20 12:40:45;;;;;;;0.32;0.30;;;26.50;92.70;;;;;;5070046;28;20107;-69
2022/08/20 12:43:12;;;;;;;2.55;0.50;;;26.70;94.90;;;;;;5073102;28;20075;-68
2022/08/20 12:45:38;;;;;;;0.35;0.20;;;27.40;93.00;;;;;;5056304;28;20036;-68
2022/08/20 12:48:08;;;;;;;0.20;0.20;;;27.70;92.50;;;;;;5073265;28;20576;-67
2022/08/20 12:50:36;;;;;;;2.42;0.20;;;27.20;91.20;;;;;;5071309;28;20029;-67
2022/08/20 12:53:05;;;;;;;0.13;0.13;;;26.80;93.30;;;;;;5072670;28;20083;-67
2022/08/20 12:55:31;;;;;;;0.35;0.30;;;27.30;92.90;;;;;;5073616;28;20139;-68
2022/08/20 12:57:59;;;;;;;0.30;0.30;;;27.30;92.30;;;;;;5071475;28;20407;-68
2022/08/20 13:00:29;;;;;;;0.40;0.30;;;27.10;93.20;;;;;;5055514;28;20048;-67